createdAt,value
2023-04-11T00:05:20.417Z,3.5
2023-04-11T00:11:12.837Z,3.5
2023-04-11T00:17:04.975Z,3.5
2023-04-11T00:22:56.949Z,3.6
2023-04-11T00:28:49.193Z,3.6
2023-04-11T00:34:40.413Z,3.6
2023-04-11T00:40:31.954Z,3.6
2023-04-11T00:46:23.541Z,3.6
2023-04-11T00:52:15.735Z,3.6
2023-04-11T00:58:06.075Z,3.7
2023-04-11T01:04:01.340Z,3.7
2023-04-11T01:09:52.961Z,3.8
2023-04-11T01:15:44.886Z,3.8
2023-04-11T01:21:22.130Z,3.8
2023-04-11T01:26:57.885Z,3.8
2023-04-11T01:32:49.564Z,3.9
2023-04-11T01:38:26.442Z,3.9
2023-04-11T01:44:03.154Z,3.9
2023-04-11T01:49:54.214Z,3.9
2023-04-11T01:55:45.893Z,4
2023-04-11T02:01:21.710Z,4.1
2023-04-11T02:07:14.885Z,4
2023-04-11T02:13:07.215Z,4
2023-04-11T02:18:59.066Z,4
2023-04-11T02:24:51.295Z,4
2023-04-11T02:30:42.993Z,4.1
2023-04-11T02:36:34.861Z,4.1
2023-04-11T02:42:25.246Z,4.1
2023-04-11T02:48:30.094Z,4.1
2023-04-11T02:54:21.445Z,4.1
2023-04-11T03:00:12.539Z,4.1
2023-04-11T03:05:50.527Z,4.1
2023-04-11T03:11:42.134Z,4.1
2023-04-11T03:17:33.866Z,4.1
2023-04-11T03:23:25.831Z,4.1
2023-04-11T03:29:17.407Z,4.1
2023-04-11T03:35:09.076Z,4.1
2023-04-11T03:40:45.451Z,4.1
2023-04-11T03:46:37.379Z,4.2
2023-04-11T03:52:31.829Z,4.2
2023-04-11T03:58:26.741Z,4.2
2023-04-11T04:04:04.874Z,4.2
2023-04-11T04:09:57.676Z,4.2
2023-04-11T04:15:49.612Z,4.3
2023-04-11T04:21:41.433Z,4.3
2023-04-11T04:27:33.393Z,4.3
2023-04-11T04:33:30.354Z,4.3
2023-04-11T04:39:21.833Z,4.3
2023-04-11T04:45:13.598Z,4.3
2023-04-11T04:50:51.152Z,4.4
2023-04-11T04:56:28.182Z,4.5
2023-04-11T05:02:19.818Z,4.6
2023-04-11T05:08:14.336Z,4.7
2023-04-11T05:14:08.237Z,4.9
2023-04-11T05:20:00.314Z,5.2
2023-04-11T05:25:52.130Z,5.8
2023-04-11T05:31:43.711Z,6.7
2023-04-11T05:37:35.134Z,7.6
2023-04-11T05:43:27.036Z,8.8
2023-04-11T05:49:18.164Z,10.4
2023-04-11T05:55:09.942Z,12.4
2023-04-11T06:01:09.061Z,14.4
2023-04-11T06:06:47.367Z,15.8
2023-04-11T06:12:40.785Z,16.2
2023-04-11T06:18:35.740Z,16.3
2023-04-11T06:24:26.679Z,16.7
2023-04-11T06:30:17.906Z,17.8
2023-04-11T06:36:10.360Z,19.5
2023-04-11T06:42:02.790Z,43
2023-04-11T06:47:39.126Z,37.3
2023-04-11T06:53:15.847Z,35.7
2023-04-11T06:59:08.008Z,34.7
2023-04-11T07:05:02.067Z,48.2
2023-04-11T07:10:57.423Z,45.1
2023-04-11T07:16:49.755Z,42.9
2023-04-11T07:22:41.352Z,42.7
2023-04-11T07:28:34.043Z,44.1
2023-04-11T07:34:28.784Z,47.6
2023-04-11T07:40:04.799Z,46.6
2023-04-11T07:45:56.716Z,45.1
2023-04-11T07:51:48.428Z,47.9
2023-04-11T07:57:39.153Z,50.1
2023-04-11T08:03:34.192Z,50.5
2023-04-11T08:09:27.244Z,49.7
2023-04-11T08:15:20.703Z,49.2
2023-04-11T08:21:24.050Z,48.6
2023-04-11T08:27:17.800Z,48.2
2023-04-11T08:32:56.511Z,47.7
2023-04-11T08:38:52.470Z,47.3
2023-04-11T08:44:44.290Z,47.6
2023-04-11T08:50:35.531Z,47.9
2023-04-11T08:56:27.242Z,48.8
2023-04-11T09:02:21.001Z,49.6
2023-04-11T09:08:12.540Z,49.6
2023-04-11T09:14:05.202Z,48.9
2023-04-11T09:20:04.752Z,49.3
2023-04-11T09:25:59.362Z,49
2023-04-11T09:31:51.597Z,48.6
2023-04-11T09:37:43.417Z,48.1
2023-04-11T09:43:36.855Z,48.1
2023-04-11T09:49:57.443Z,49.4
2023-04-11T09:56:06.253Z,50.6
2023-04-11T10:01:58.360Z,51.3
2023-04-11T10:07:52.019Z,51.9
2023-04-11T10:13:43.553Z,52.9
2023-04-11T10:19:39.186Z,53
2023-04-11T10:25:16.906Z,53.8
2023-04-11T10:31:08.150Z,54.7
2023-04-11T10:36:44.742Z,54.7
2023-04-11T10:42:21.687Z,54.9
2023-04-11T10:48:14.174Z,54.4
2023-04-11T10:54:05.567Z,54.8
2023-04-11T10:59:57.596Z,56.3
2023-04-11T11:06:18.356Z,54.2
2023-04-11T11:12:07.125Z,53.3
2023-04-11T11:17:59.704Z,52.6
2023-04-11T11:23:45.230Z,53.1
2023-04-11T11:29:36.691Z,54.5
2023-04-11T11:35:33.028Z,54.9
2023-04-11T11:41:24.621Z,55.3
2023-04-11T11:47:18.287Z,56.2
2023-04-11T11:52:39.986Z,54.8
2023-04-11T11:58:18.707Z,55.1
2023-04-11T12:04:11.777Z,54.6
2023-04-11T12:10:05.308Z,54.1
2023-04-11T12:15:27.946Z,55.3
2023-04-11T12:21:20.223Z,54.3
2023-04-11T12:27:18.823Z,53.5
2023-04-11T12:33:13.214Z,52.6
2023-04-11T12:39:07.687Z,52.2
2023-04-11T12:45:45.564Z,55.3
2023-04-11T12:51:07.169Z,55.3
2023-04-11T12:56:58.472Z,55.8
2023-04-11T13:02:59.253Z,55.1
2023-04-11T13:08:52.978Z,54.5
2023-04-11T13:15:00.011Z,53.7
2023-04-11T13:20:52.607Z,52.8
2023-04-11T13:26:45.041Z,49.4
2023-04-11T13:32:37.890Z,46.6
2023-04-11T13:38:31.664Z,43.9
2023-04-11T13:44:23.352Z,41.5
2023-04-11T13:50:15.496Z,39.7
2023-04-11T13:55:52.290Z,38.4
2023-04-11T14:01:58.399Z,37
2023-04-11T14:07:53.604Z,35.6
2023-04-11T14:13:45.653Z,34.3
2023-04-11T14:19:49.064Z,33.1
2023-04-11T14:25:42.252Z,32.2
2023-04-11T14:31:35.257Z,31.4
2023-04-11T14:37:27.873Z,30.7
2023-04-11T14:43:19.332Z,30.2
2023-04-11T14:49:14.221Z,29.6
2023-04-11T14:55:05.831Z,28.8
2023-04-11T15:00:57.442Z,27.9
2023-04-11T15:06:51.872Z,27.1
2023-04-11T15:12:43.631Z,26.4
2023-04-11T15:18:38.104Z,25.7
2023-04-11T15:24:29.987Z,25
2023-04-11T15:30:21.877Z,24.4
2023-04-11T15:36:16.600Z,23.8
2023-04-11T15:41:52.968Z,23.1
2023-04-11T15:47:45.510Z,22.5
2023-04-11T15:53:37.295Z,22
2023-04-11T15:59:29.812Z,21.4
2023-04-11T16:05:27.933Z,20.9
2023-04-11T16:11:04.307Z,20.5
2023-04-11T16:16:41.100Z,19.9
2023-04-11T16:22:33.565Z,19.4
2023-04-11T16:28:25.615Z,18.8
2023-04-11T16:34:20.171Z,18.1
2023-04-11T16:40:14.490Z,17.6
2023-04-11T16:50:43.741Z,16.6
2023-04-11T16:56:35.808Z,16.1
2023-04-11T17:02:28.009Z,15.6
2023-04-11T17:08:21.818Z,15.2
2023-04-11T17:13:43.109Z,14.8
2023-04-11T17:19:19.844Z,14.4
2023-04-11T17:25:10.661Z,14.1
2023-04-11T17:31:04.224Z,13.7
2023-04-11T17:36:55.867Z,13.4
2023-04-11T17:42:58.186Z,13
2023-04-11T17:48:42.969Z,12.7
2023-04-11T17:54:31.369Z,12.4
2023-04-11T18:00:24.725Z,12.2
2023-04-11T18:06:34.573Z,12
2023-04-11T18:12:13.406Z,11.8
2023-04-11T18:17:50.194Z,11.6
2023-04-11T18:23:11.377Z,11.4
2023-04-11T18:28:47.828Z,11.3
2023-04-11T18:34:54.524Z,11
2023-04-11T18:40:49.127Z,10.8
2023-04-11T18:46:31.223Z,10.7
2023-04-11T18:52:15.446Z,10.5
2023-04-11T18:58:13.561Z,10.4
2023-04-11T19:04:12.168Z,10.3
2023-04-11T19:09:52.380Z,10.1
2023-04-11T19:15:30.868Z,10
2023-04-11T19:21:09.255Z,9.9
2023-04-11T19:26:47.055Z,9.8
2023-04-11T19:32:24.938Z,9.7
2023-04-11T19:38:02.818Z,9.6
2023-04-11T19:43:25.031Z,9.4
2023-04-11T19:49:03.861Z,9.3
2023-04-11T19:54:43.229Z,9.3
2023-04-11T20:00:21.377Z,9.1
2023-04-11T20:05:45.790Z,8.9
2023-04-11T20:11:25.481Z,8.9
2023-04-11T20:17:04.116Z,8.8
2023-04-11T20:22:26.096Z,8.7
2023-04-11T20:28:02.624Z,8.6
2023-04-11T20:33:39.730Z,8.4
2023-04-11T20:39:19.216Z,8.3
2023-04-11T20:44:55.683Z,8.3
2023-04-11T20:50:33.178Z,8.2
2023-04-11T20:56:09.426Z,8.1
2023-04-11T21:01:45.841Z,8
2023-04-11T21:07:39.469Z,7.9
2023-04-11T21:13:31.065Z,7.8
2023-04-11T21:19:22.026Z,7.8
2023-04-11T21:25:13.496Z,7.7
2023-04-11T21:30:50.273Z,7.6
2023-04-11T21:36:42.482Z,7.6
2023-04-11T21:42:34.293Z,7.4
2023-04-11T21:48:26.484Z,7.4
2023-04-11T21:54:18.057Z,7.3
2023-04-11T22:00:23.056Z,7.3
2023-04-11T22:06:28.964Z,7.3
2023-04-11T22:12:30.979Z,7.2
2023-04-11T22:18:23.440Z,7.2
2023-04-11T22:24:15.409Z,7.1
2023-04-11T22:30:06.760Z,7.1
2023-04-11T22:35:44.145Z,7.1
2023-04-11T22:41:35.472Z,7.1
2023-04-11T22:47:27.335Z,7
2023-04-11T22:53:19.577Z,7
2023-04-11T22:59:10.162Z,7
2023-04-11T23:05:02.052Z,7
2023-04-11T23:10:39.116Z,7
2023-04-11T23:16:30.884Z,7
2023-04-11T23:22:06.635Z,7
2023-04-11T23:27:58.219Z,7
2023-04-11T23:33:49.797Z,6.9
2023-04-11T23:39:25.983Z,6.9
2023-04-11T23:44:31.793Z,6.9
2023-04-11T23:49:52.388Z,6.9
2023-04-11T23:55:12.938Z,6.9
